sensor_id;sensor_type;location;lat;lon;timestamp;P1;durP1;ratioP1;P2;durP2;ratioP2
29466;SDS011;60968;37.490;-122.288;2023-04-06T00:00:14;5.17;;;1.00;;
29466;SDS011;60968;37.490;-122.288;2023-04-06T00:03:15;6.70;;;1.30;;
29466;SDS011;60968;37.490;-122.288;2023-04-06T00:06:18;6.83;;;1.13;;
29466;SDS011;60968;37.490;-122.288;2023-04-06T00:09:18;2.10;;;0.50;;
29466;SDS011;60968;37.490;-122.288;2023-04-06T00:12:20;7.33;;;1.10;;
29466;SDS011;60968;37.490;-122.288;2023-04-06T00:15:20;10.57;;;0.97;;
29466;SDS011;60968;37.490;-122.288;2023-04-06T00:18:22;2.40;;;0.67;;
29466;SDS011;60968;37.490;-122.288;2023-04-06T00:21:23;4.73;;;1.07;;
29466;SDS011;60968;37.490;-122.288;2023-04-06T00:24:25;4.70;;;0.80;;
29466;SDS011;60968;37.490;-122.288;2023-04-06T00:27:26;6.27;;;0.80;;
29466;SDS011;60968;37.490;-122.288;2023-04-06T00:30:28;3.73;;;0.80;;
29466;SDS011;60968;37.490;-122.288;2023-04-06T00:33:29;4.53;;;0.90;;
29466;SDS011;60968;37.490;-122.288;2023-04-06T00:36:30;3.40;;;0.53;;
29466;SDS011;60968;37.490;-122.288;2023-04-06T00:39:31;7.93;;;0.70;;
29466;SDS011;60968;37.490;-122.288;2023-04-06T00:42:31;4.30;;;0.77;;
29466;SDS011;60968;37.490;-122.288;2023-04-06T00:45:33;3.80;;;0.67;;
29466;SDS011;60968;37.490;-122.288;2023-04-06T00:48:34;6.00;;;1.07;;
29466;SDS011;60968;37.490;-122.288;2023-04-06T00:51:37;6.53;;;1.13;;
29466;SDS011;60968;37.490;-122.288;2023-04-06T00:54:39;6.80;;;1.07;;
29466;SDS011;60968;37.490;-122.288;2023-04-06T00:57:43;5.17;;;0.80;;
29466;SDS011;60968;37.490;-122.288;2023-04-06T01:00:44;3.30;;;0.70;;
29466;SDS011;60968;37.490;-122.288;2023-04-06T01:03:48;3.97;;;1.00;;
29466;SDS011;60968;37.490;-122.288;2023-04-06T01:06:50;5.53;;;1.00;;
29466;SDS011;60968;37.490;-122.288;2023-04-06T01:09:53;3.13;;;0.73;;
29466;SDS011;60968;37.490;-122.288;2023-04-06T01:12:54;4.27;;;0.70;;
29466;SDS011;60968;37.490;-122.288;2023-04-06T01:15:57;3.33;;;0.80;;
29466;SDS011;60968;37.490;-122.288;2023-04-06T01:18:59;7.47;;;1.23;;
29466;SDS011;60968;37.490;-122.288;2023-04-06T01:22:00;2.60;;;0.60;;
29466;SDS011;60968;37.490;-122.288;2023-04-06T01:25:01;6.53;;;1.53;;
29466;SDS011;60968;37.490;-122.288;2023-04-06T01:28:02;3.90;;;0.80;;
29466;SDS011;60968;37.490;-122.288;2023-04-06T01:31:04;3.93;;;1.37;;
29466;SDS011;60968;37.490;-122.288;2023-04-06T01:34:05;6.13;;;1.97;;
29466;SDS011;60968;37.490;-122.288;2023-04-06T01:37:07;5.53;;;1.00;;
29466;SDS011;60968;37.490;-122.288;2023-04-06T01:40:09;3.80;;;1.13;;
29466;SDS011;60968;37.490;-122.288;2023-04-06T01:43:11;5.93;;;1.03;;
29466;SDS011;60968;37.490;-122.288;2023-04-06T01:46:12;4.33;;;0.87;;
29466;SDS011;60968;37.490;-122.288;2023-04-06T01:49:14;7.23;;;1.07;;
29466;SDS011;60968;37.490;-122.288;2023-04-06T01:52:15;3.77;;;1.00;;
29466;SDS011;60968;37.490;-122.288;2023-04-06T01:55:16;4.30;;;0.93;;
29466;SDS011;60968;37.490;-122.288;2023-04-06T01:58:18;10.63;;;1.30;;
29466;SDS011;60968;37.490;-122.288;2023-04-06T02:01:19;6.70;;;1.20;;
29466;SDS011;60968;37.490;-122.288;2023-04-06T02:04:20;9.17;;;1.80;;
29466;SDS011;60968;37.490;-122.288;2023-04-06T02:07:21;5.47;;;0.80;;
29466;SDS011;60968;37.490;-122.288;2023-04-06T02:10:22;11.03;;;1.00;;
29466;SDS011;60968;37.490;-122.288;2023-04-06T02:13:23;3.87;;;1.10;;
29466;SDS011;60968;37.490;-122.288;2023-04-06T02:16:24;3.00;;;0.93;;
29466;SDS011;60968;37.490;-122.288;2023-04-06T02:19:25;5.03;;;0.90;;
29466;SDS011;60968;37.490;-122.288;2023-04-06T02:22:26;2.70;;;0.73;;
29466;SDS011;60968;37.490;-122.288;2023-04-06T02:25:27;6.33;;;1.07;;
29466;SDS011;60968;37.490;-122.288;2023-04-06T02:28:28;2.83;;;1.00;;
29466;SDS011;60968;37.490;-122.288;2023-04-06T02:31:28;7.87;;;1.23;;
29466;SDS011;60968;37.490;-122.288;2023-04-06T02:34:30;3.23;;;0.80;;
29466;SDS011;60968;37.490;-122.288;2023-04-06T02:37:33;4.20;;;0.90;;
29466;SDS011;60968;37.490;-122.288;2023-04-06T02:40:34;10.63;;;1.07;;
29466;SDS011;60968;37.490;-122.288;2023-04-06T02:43:36;4.90;;;1.83;;
29466;SDS011;60968;37.490;-122.288;2023-04-06T02:46:37;4.63;;;0.80;;
29466;SDS011;60968;37.490;-122.288;2023-04-06T02:49:39;7.50;;;0.83;;
29466;SDS011;60968;37.490;-122.288;2023-04-06T02:52:41;8.37;;;1.30;;
29466;SDS011;60968;37.490;-122.288;2023-04-06T02:55:43;3.10;;;1.10;;
29466;SDS011;60968;37.490;-122.288;2023-04-06T02:58:43;3.17;;;0.77;;
29466;SDS011;60968;37.490;-122.288;2023-04-06T03:01:44;6.13;;;0.80;;
29466;SDS011;60968;37.490;-122.288;2023-04-06T03:04:45;3.10;;;0.80;;
29466;SDS011;60968;37.490;-122.288;2023-04-06T03:07:47;6.87;;;1.20;;
29466;SDS011;60968;37.490;-122.288;2023-04-06T03:10:48;2.97;;;0.80;;
29466;SDS011;60968;37.490;-122.288;2023-04-06T03:13:49;2.77;;;0.70;;
29466;SDS011;60968;37.490;-122.288;2023-04-06T03:16:50;2.43;;;0.60;;
29466;SDS011;60968;37.490;-122.288;2023-04-06T03:19:54;3.87;;;0.70;;
29466;SDS011;60968;37.490;-122.288;2023-04-06T03:22:55;4.50;;;0.67;;
29466;SDS011;60968;37.490;-122.288;2023-04-06T03:25:56;10.00;;;1.63;;
29466;SDS011;60968;37.490;-122.288;2023-04-06T03:28:57;7.20;;;1.00;;
29466;SDS011;60968;37.490;-122.288;2023-04-06T03:31:57;4.63;;;1.00;;
29466;SDS011;60968;37.490;-122.288;2023-04-06T03:34:58;3.23;;;0.60;;
29466;SDS011;60968;37.490;-122.288;2023-04-06T03:38:01;4.73;;;0.80;;
29466;SDS011;60968;37.490;-122.288;2023-04-06T03:41:01;3.27;;;0.90;;
29466;SDS011;60968;37.490;-122.288;2023-04-06T03:44:05;1.67;;;0.70;;
29466;SDS011;60968;37.490;-122.288;2023-04-06T03:47:06;4.43;;;1.10;;
29466;SDS011;60968;37.490;-122.288;2023-04-06T03:50:07;6.30;;;0.93;;
29466;SDS011;60968;37.490;-122.288;2023-04-06T03:53:11;2.50;;;0.57;;
29466;SDS011;60968;37.490;-122.288;2023-04-06T03:56:12;4.83;;;0.83;;
29466;SDS011;60968;37.490;-122.288;2023-04-06T03:59:13;3.40;;;0.70;;
29466;SDS011;60968;37.490;-122.288;2023-04-06T04:02:14;4.67;;;0.70;;
29466;SDS011;60968;37.490;-122.288;2023-04-06T04:05:15;3.80;;;0.43;;
29466;SDS011;60968;37.490;-122.288;2023-04-06T04:08:17;3.67;;;0.60;;
29466;SDS011;60968;37.490;-122.288;2023-04-06T04:11:18;3.03;;;0.50;;
29466;SDS011;60968;37.490;-122.288;2023-04-06T04:14:20;1.63;;;0.60;;
29466;SDS011;60968;37.490;-122.288;2023-04-06T04:17:21;2.63;;;0.90;;
29466;SDS011;60968;37.490;-122.288;2023-04-06T04:20:24;2.83;;;0.77;;
29466;SDS011;60968;37.490;-122.288;2023-04-06T04:23:25;7.57;;;0.70;;
29466;SDS011;60968;37.490;-122.288;2023-04-06T04:26:27;5.37;;;0.80;;
29466;SDS011;60968;37.490;-122.288;2023-04-06T04:29:28;6.30;;;0.90;;
29466;SDS011;60968;37.490;-122.288;2023-04-06T04:32:28;2.67;;;1.00;;
29466;SDS011;60968;37.490;-122.288;2023-04-06T04:35:29;2.53;;;0.53;;
29466;SDS011;60968;37.490;-122.288;2023-04-06T04:38:30;4.57;;;0.70;;
29466;SDS011;60968;37.490;-122.288;2023-04-06T04:41:31;1.27;;;0.53;;
29466;SDS011;60968;37.490;-122.288;2023-04-06T04:44:32;1.60;;;0.60;;
29466;SDS011;60968;37.490;-122.288;2023-04-06T04:47:33;4.03;;;0.70;;
29466;SDS011;60968;37.490;-122.288;2023-04-06T04:50:34;3.00;;;0.70;;
29466;SDS011;60968;37.490;-122.288;2023-04-06T04:53:35;10.20;;;1.30;;
29466;SDS011;60968;37.490;-122.288;2023-04-06T04:56:36;4.00;;;0.90;;
29466;SDS011;60968;37.490;-122.288;2023-04-06T04:59:37;5.40;;;0.80;;
29466;SDS011;60968;37.490;-122.288;2023-04-06T05:02:38;9.03;;;1.00;;
29466;SDS011;60968;37.490;-122.288;2023-04-06T05:05:40;6.10;;;1.23;;
29466;SDS011;60968;37.490;-122.288;2023-04-06T05:08:41;3.27;;;0.87;;
29466;SDS011;60968;37.490;-122.288;2023-04-06T05:11:42;6.23;;;1.17;;
29466;SDS011;60968;37.490;-122.288;2023-04-06T05:14:43;5.23;;;0.80;;
29466;SDS011;60968;37.490;-122.288;2023-04-06T05:17:44;6.70;;;0.97;;
29466;SDS011;60968;37.490;-122.288;2023-04-06T05:20:46;5.07;;;0.93;;
29466;SDS011;60968;37.490;-122.288;2023-04-06T05:23:47;8.20;;;1.23;;
29466;SDS011;60968;37.490;-122.288;2023-04-06T05:26:48;6.63;;;1.00;;
29466;SDS011;60968;37.490;-122.288;2023-04-06T05:29:49;9.47;;;1.57;;
29466;SDS011;60968;37.490;-122.288;2023-04-06T05:32:50;6.03;;;1.10;;
29466;SDS011;60968;37.490;-122.288;2023-04-06T05:35:52;4.30;;;1.33;;
29466;SDS011;60968;37.490;-122.288;2023-04-06T05:38:53;3.07;;;0.97;;
29466;SDS011;60968;37.490;-122.288;2023-04-06T05:41:54;5.83;;;1.20;;
29466;SDS011;60968;37.490;-122.288;2023-04-06T05:44:55;6.10;;;1.23;;
29466;SDS011;60968;37.490;-122.288;2023-04-06T05:47:57;5.80;;;1.27;;
29466;SDS011;60968;37.490;-122.288;2023-04-06T05:50:58;6.50;;;0.87;;
29466;SDS011;60968;37.490;-122.288;2023-04-06T05:53:59;5.47;;;0.90;;
29466;SDS011;60968;37.490;-122.288;2023-04-06T05:57:01;4.33;;;0.80;;
29466;SDS011;60968;37.490;-122.288;2023-04-06T06:00:03;1.57;;;0.47;;
29466;SDS011;60968;37.490;-122.288;2023-04-06T06:03:06;2.80;;;0.73;;
29466;SDS011;60968;37.490;-122.288;2023-04-06T06:06:07;3.30;;;0.70;;
29466;SDS011;60968;37.490;-122.288;2023-04-06T06:09:11;5.37;;;0.77;;
29466;SDS011;60968;37.490;-122.288;2023-04-06T06:12:12;1.90;;;0.50;;
29466;SDS011;60968;37.490;-122.288;2023-04-06T06:15:13;4.57;;;0.63;;
29466;SDS011;60968;37.490;-122.288;2023-04-06T06:18:14;2.97;;;0.80;;
29466;SDS011;60968;37.490;-122.288;2023-04-06T06:21:15;3.43;;;0.77;;
29466;SDS011;60968;37.490;-122.288;2023-04-06T06:24:16;4.53;;;1.00;;
29466;SDS011;60968;37.490;-122.288;2023-04-06T06:27:17;1.97;;;0.80;;
29466;SDS011;60968;37.490;-122.288;2023-04-06T06:30:18;3.17;;;0.70;;
29466;SDS011;60968;37.490;-122.288;2023-04-06T06:33:20;3.03;;;1.17;;
29466;SDS011;60968;37.490;-122.288;2023-04-06T06:36:21;1.67;;;0.73;;
29466;SDS011;60968;37.490;-122.288;2023-04-06T06:39:23;7.03;;;1.20;;
29466;SDS011;60968;37.490;-122.288;2023-04-06T06:42:23;5.00;;;1.17;;
29466;SDS011;60968;37.490;-122.288;2023-04-06T06:45:24;7.47;;;1.17;;
29466;SDS011;60968;37.490;-122.288;2023-04-06T06:48:25;8.37;;;1.03;;
29466;SDS011;60968;37.490;-122.288;2023-04-06T06:51:26;5.70;;;1.20;;
29466;SDS011;60968;37.490;-122.288;2023-04-06T06:54:27;5.70;;;1.07;;
29466;SDS011;60968;37.490;-122.288;2023-04-06T06:57:28;8.73;;;2.00;;
29466;SDS011;60968;37.490;-122.288;2023-04-06T07:00:28;9.30;;;1.30;;
29466;SDS011;60968;37.490;-122.288;2023-04-06T07:03:30;6.60;;;1.27;;
29466;SDS011;60968;37.490;-122.288;2023-04-06T07:06:32;6.00;;;1.10;;
29466;SDS011;60968;37.490;-122.288;2023-04-06T07:09:33;7.33;;;1.07;;
29466;SDS011;60968;37.490;-122.288;2023-04-06T07:12:35;7.07;;;1.40;;
29466;SDS011;60968;37.490;-122.288;2023-04-06T07:15:35;7.63;;;1.03;;
29466;SDS011;60968;37.490;-122.288;2023-04-06T07:18:36;5.77;;;0.90;;
29466;SDS011;60968;37.490;-122.288;2023-04-06T07:21:37;4.30;;;0.80;;
29466;SDS011;60968;37.490;-122.288;2023-04-06T07:24:39;5.33;;;1.27;;
29466;SDS011;60968;37.490;-122.288;2023-04-06T07:27:40;5.63;;;0.93;;
29466;SDS011;60968;37.490;-122.288;2023-04-06T07:30:40;4.23;;;0.80;;
29466;SDS011;60968;37.490;-122.288;2023-04-06T07:33:42;7.10;;;0.90;;
29466;SDS011;60968;37.490;-122.288;2023-04-06T07:36:44;3.60;;;0.73;;
29466;SDS011;60968;37.490;-122.288;2023-04-06T07:39:45;3.33;;;0.80;;
29466;SDS011;60968;37.490;-122.288;2023-04-06T07:42:46;2.30;;;0.80;;
29466;SDS011;60968;37.490;-122.288;2023-04-06T07:45:47;3.47;;;1.30;;
29466;SDS011;60968;37.490;-122.288;2023-04-06T07:48:49;6.40;;;0.73;;
29466;SDS011;60968;37.490;-122.288;2023-04-06T07:51:50;3.93;;;0.80;;
29466;SDS011;60968;37.490;-122.288;2023-04-06T07:54:51;2.63;;;0.73;;
29466;SDS011;60968;37.490;-122.288;2023-04-06T07:57:52;2.37;;;0.63;;
29466;SDS011;60968;37.490;-122.288;2023-04-06T08:00:52;4.20;;;1.10;;
29466;SDS011;60968;37.490;-122.288;2023-04-06T08:03:54;3.10;;;0.50;;
29466;SDS011;60968;37.490;-122.288;2023-04-06T08:07:00;1.57;;;0.50;;
29466;SDS011;60968;37.490;-122.288;2023-04-06T08:10:01;6.47;;;0.90;;
29466;SDS011;60968;37.490;-122.288;2023-04-06T08:13:02;1.17;;;0.47;;
29466;SDS011;60968;37.490;-122.288;2023-04-06T08:16:14;3.50;;;1.20;;
29466;SDS011;60968;37.490;-122.288;2023-04-06T08:19:15;0.97;;;0.50;;
29466;SDS011;60968;37.490;-122.288;2023-04-06T08:22:16;3.37;;;0.80;;
29466;SDS011;60968;37.490;-122.288;2023-04-06T08:25:16;3.23;;;0.77;;
29466;SDS011;60968;37.490;-122.288;2023-04-06T08:28:18;4.30;;;0.83;;
29466;SDS011;60968;37.490;-122.288;2023-04-06T08:31:19;3.50;;;0.77;;
29466;SDS011;60968;37.490;-122.288;2023-04-06T08:34:20;2.10;;;0.50;;
29466;SDS011;60968;37.490;-122.288;2023-04-06T08:37:22;6.23;;;1.27;;
29466;SDS011;60968;37.490;-122.288;2023-04-06T08:40:24;1.87;;;0.80;;
29466;SDS011;60968;37.490;-122.288;2023-04-06T08:43:26;3.43;;;1.10;;
29466;SDS011;60968;37.490;-122.288;2023-04-06T08:46:29;4.70;;;1.10;;
29466;SDS011;60968;37.490;-122.288;2023-04-06T08:49:32;8.33;;;1.50;;
29466;SDS011;60968;37.490;-122.288;2023-04-06T08:52:40;12.23;;;1.83;;
29466;SDS011;60968;37.490;-122.288;2023-04-06T08:55:44;3.67;;;1.90;;
29466;SDS011;60968;37.490;-122.288;2023-04-06T08:58:45;5.37;;;1.30;;
29466;SDS011;60968;37.490;-122.288;2023-04-06T09:01:46;11.93;;;1.53;;
29466;SDS011;60968;37.490;-122.288;2023-04-06T09:04:48;13.70;;;1.43;;
29466;SDS011;60968;37.490;-122.288;2023-04-06T09:07:52;7.53;;;1.50;;
29466;SDS011;60968;37.490;-122.288;2023-04-06T09:10:53;5.57;;;1.23;;
29466;SDS011;60968;37.490;-122.288;2023-04-06T09:13:56;10.37;;;1.40;;
29466;SDS011;60968;37.490;-122.288;2023-04-06T09:16:57;5.93;;;1.40;;
29466;SDS011;60968;37.490;-122.288;2023-04-06T09:19:58;5.50;;;1.10;;
29466;SDS011;60968;37.490;-122.288;2023-04-06T09:23:01;5.57;;;1.27;;
29466;SDS011;60968;37.490;-122.288;2023-04-06T09:26:12;5.57;;;1.30;;
29466;SDS011;60968;37.490;-122.288;2023-04-06T09:29:25;8.07;;;1.30;;
29466;SDS011;60968;37.490;-122.288;2023-04-06T09:32:26;6.17;;;1.10;;
29466;SDS011;60968;37.490;-122.288;2023-04-06T09:35:28;12.33;;;1.37;;
29466;SDS011;60968;37.490;-122.288;2023-04-06T09:38:29;7.20;;;1.50;;
29466;SDS011;60968;37.490;-122.288;2023-04-06T09:41:34;12.73;;;1.87;;
29466;SDS011;60968;37.490;-122.288;2023-04-06T09:44:36;9.23;;;1.33;;
29466;SDS011;60968;37.490;-122.288;2023-04-06T09:47:37;6.30;;;1.50;;
29466;SDS011;60968;37.490;-122.288;2023-04-06T09:50:42;5.80;;;1.47;;
29466;SDS011;60968;37.490;-122.288;2023-04-06T09:53:43;3.60;;;1.00;;
29466;SDS011;60968;37.490;-122.288;2023-04-06T10:00:14;7.57;;;1.50;;
29466;SDS011;60968;37.490;-122.288;2023-04-06T10:03:24;6.93;;;1.40;;
29466;SDS011;60968;37.490;-122.288;2023-04-06T10:06:28;4.37;;;1.27;;
29466;SDS011;60968;37.490;-122.288;2023-04-06T10:09:33;17.23;;;1.87;;
29466;SDS011;60968;37.490;-122.288;2023-04-06T10:12:38;7.73;;;1.30;;
29466;SDS011;60968;37.490;-122.288;2023-04-06T10:15:40;8.57;;;1.20;;
29466;SDS011;60968;37.490;-122.288;2023-04-06T10:18:49;6.33;;;1.30;;
29466;SDS011;60968;37.490;-122.288;2023-04-06T10:21:54;10.60;;;1.43;;
29466;SDS011;60968;37.490;-122.288;2023-04-06T10:24:59;6.00;;;0.97;;
29466;SDS011;60968;37.490;-122.288;2023-04-06T10:28:06;5.03;;;1.20;;
29466;SDS011;60968;37.490;-122.288;2023-04-06T10:31:08;3.93;;;1.20;;
29466;SDS011;60968;37.490;-122.288;2023-04-06T10:34:09;4.83;;;1.37;;
29466;SDS011;60968;37.490;-122.288;2023-04-06T10:37:13;6.43;;;1.10;;
29466;SDS011;60968;37.490;-122.288;2023-04-06T10:40:27;6.40;;;1.27;;
29466;SDS011;60968;37.490;-122.288;2023-04-06T10:43:32;4.80;;;0.87;;
29466;SDS011;60968;37.490;-122.288;2023-04-06T10:46:34;7.67;;;1.20;;
29466;SDS011;60968;37.490;-122.288;2023-04-06T10:49:35;4.87;;;0.97;;
29466;SDS011;60968;37.490;-122.288;2023-04-06T10:52:37;4.53;;;1.13;;
29466;SDS011;60968;37.490;-122.288;2023-04-06T10:55:38;4.60;;;1.30;;
29466;SDS011;60968;37.490;-122.288;2023-04-06T10:58:52;8.30;;;1.60;;
29466;SDS011;60968;37.490;-122.288;2023-04-06T11:01:55;11.73;;;1.40;;
29466;SDS011;60968;37.490;-122.288;2023-04-06T11:04:59;6.77;;;1.23;;
29466;SDS011;60968;37.490;-122.288;2023-04-06T11:08:01;7.37;;;1.20;;
29466;SDS011;60968;37.490;-122.288;2023-04-06T11:11:10;8.03;;;1.80;;
29466;SDS011;60968;37.490;-122.288;2023-04-06T11:14:16;8.13;;;1.50;;
29466;SDS011;60968;37.490;-122.288;2023-04-06T11:17:24;7.73;;;1.10;;
29466;SDS011;60968;37.490;-122.288;2023-04-06T11:20:27;5.67;;;1.40;;
29466;SDS011;60968;37.490;-122.288;2023-04-06T11:23:28;6.33;;;1.20;;
29466;SDS011;60968;37.490;-122.288;2023-04-06T11:26:29;5.00;;;1.60;;
29466;SDS011;60968;37.490;-122.288;2023-04-06T11:29:31;3.13;;;1.00;;
29466;SDS011;60968;37.490;-122.288;2023-04-06T11:32:44;5.37;;;1.00;;
29466;SDS011;60968;37.490;-122.288;2023-04-06T11:35:46;7.03;;;1.20;;
29466;SDS011;60968;37.490;-122.288;2023-04-06T11:38:46;7.83;;;1.90;;
29466;SDS011;60968;37.490;-122.288;2023-04-06T11:41:51;3.87;;;1.17;;
29466;SDS011;60968;37.490;-122.288;2023-04-06T11:44:57;4.47;;;0.97;;
29466;SDS011;60968;37.490;-122.288;2023-04-06T11:47:59;4.23;;;1.00;;
29466;SDS011;60968;37.490;-122.288;2023-04-06T11:51:01;4.53;;;1.30;;
29466;SDS011;60968;37.490;-122.288;2023-04-06T11:54:02;6.03;;;1.03;;
29466;SDS011;60968;37.490;-122.288;2023-04-06T11:57:03;5.93;;;1.17;;
29466;SDS011;60968;37.490;-122.288;2023-04-06T12:00:05;4.13;;;1.13;;
29466;SDS011;60968;37.490;-122.288;2023-04-06T12:03:07;8.67;;;1.30;;
29466;SDS011;60968;37.490;-122.288;2023-04-06T12:06:08;7.73;;;1.33;;
29466;SDS011;60968;37.490;-122.288;2023-04-06T12:09:12;6.13;;;1.60;;
29466;SDS011;60968;37.490;-122.288;2023-04-06T12:12:12;15.57;;;1.60;;
29466;SDS011;60968;37.490;-122.288;2023-04-06T12:15:13;9.80;;;1.33;;
29466;SDS011;60968;37.490;-122.288;2023-04-06T12:18:15;2.33;;;1.20;;
29466;SDS011;60968;37.490;-122.288;2023-04-06T12:21:16;7.67;;;1.33;;
29466;SDS011;60968;37.490;-122.288;2023-04-06T12:24:17;7.57;;;1.60;;
29466;SDS011;60968;37.490;-122.288;2023-04-06T12:27:18;5.80;;;1.40;;
29466;SDS011;60968;37.490;-122.288;2023-04-06T12:30:20;5.63;;;1.37;;
29466;SDS011;60968;37.490;-122.288;2023-04-06T12:33:21;7.47;;;2.03;;
29466;SDS011;60968;37.490;-122.288;2023-04-06T12:36:23;4.30;;;1.10;;
29466;SDS011;60968;37.490;-122.288;2023-04-06T12:39:24;7.47;;;2.20;;
29466;SDS011;60968;37.490;-122.288;2023-04-06T12:42:24;4.30;;;1.13;;
29466;SDS011;60968;37.490;-122.288;2023-04-06T12:45:25;5.47;;;1.43;;
29466;SDS011;60968;37.490;-122.288;2023-04-06T12:48:26;6.87;;;1.50;;
29466;SDS011;60968;37.490;-122.288;2023-04-06T12:51:29;13.57;;;1.97;;
29466;SDS011;60968;37.490;-122.288;2023-04-06T12:54:31;5.73;;;1.20;;
29466;SDS011;60968;37.490;-122.288;2023-04-06T12:57:33;5.93;;;1.20;;
29466;SDS011;60968;37.490;-122.288;2023-04-06T13:00:33;3.50;;;1.30;;
29466;SDS011;60968;37.490;-122.288;2023-04-06T13:03:34;7.80;;;1.60;;
29466;SDS011;60968;37.490;-122.288;2023-04-06T13:06:36;4.67;;;1.30;;
29466;SDS011;60968;37.490;-122.288;2023-04-06T13:09:37;8.03;;;1.37;;
29466;SDS011;60968;37.490;-122.288;2023-04-06T13:12:39;12.23;;;1.67;;
29466;SDS011;60968;37.490;-122.288;2023-04-06T13:15:40;3.30;;;1.37;;
29466;SDS011;60968;37.490;-122.288;2023-04-06T13:18:42;10.60;;;1.43;;
29466;SDS011;60968;37.490;-122.288;2023-04-06T13:21:43;12.40;;;1.67;;
29466;SDS011;60968;37.490;-122.288;2023-04-06T13:24:43;6.77;;;1.73;;
29466;SDS011;60968;37.490;-122.288;2023-04-06T13:27:44;5.83;;;1.40;;
29466;SDS011;60968;37.490;-122.288;2023-04-06T13:30:47;9.43;;;1.70;;
29466;SDS011;60968;37.490;-122.288;2023-04-06T13:33:48;7.07;;;1.33;;
29466;SDS011;60968;37.490;-122.288;2023-04-06T13:36:50;3.40;;;1.20;;
29466;SDS011;60968;37.490;-122.288;2023-04-06T13:39:51;10.27;;;1.60;;
29466;SDS011;60968;37.490;-122.288;2023-04-06T13:42:52;9.17;;;1.40;;
29466;SDS011;60968;37.490;-122.288;2023-04-06T13:45:53;4.13;;;1.10;;
29466;SDS011;60968;37.490;-122.288;2023-04-06T13:48:56;3.90;;;1.00;;
29466;SDS011;60968;37.490;-122.288;2023-04-06T13:51:56;8.23;;;1.33;;
29466;SDS011;60968;37.490;-122.288;2023-04-06T13:54:57;3.87;;;1.20;;
29466;SDS011;60968;37.490;-122.288;2023-04-06T13:57:58;4.40;;;1.10;;
29466;SDS011;60968;37.490;-122.288;2023-04-06T14:01:04;6.23;;;1.40;;
29466;SDS011;60968;37.490;-122.288;2023-04-06T14:04:08;13.30;;;1.43;;
29466;SDS011;60968;37.490;-122.288;2023-04-06T14:07:09;6.97;;;1.10;;
29466;SDS011;60968;37.490;-122.288;2023-04-06T14:10:11;4.63;;;1.47;;
29466;SDS011;60968;37.490;-122.288;2023-04-06T14:13:13;5.20;;;1.43;;
29466;SDS011;60968;37.490;-122.288;2023-04-06T14:16:15;7.17;;;1.13;;
29466;SDS011;60968;37.490;-122.288;2023-04-06T14:19:18;6.10;;;1.30;;
29466;SDS011;60968;37.490;-122.288;2023-04-06T14:22:19;7.27;;;1.20;;
29466;SDS011;60968;37.490;-122.288;2023-04-06T14:25:21;3.33;;;1.00;;
29466;SDS011;60968;37.490;-122.288;2023-04-06T14:28:22;6.30;;;1.20;;
29466;SDS011;60968;37.490;-122.288;2023-04-06T14:31:23;5.40;;;1.50;;
29466;SDS011;60968;37.490;-122.288;2023-04-06T14:34:28;5.53;;;1.63;;
29466;SDS011;60968;37.490;-122.288;2023-04-06T14:37:29;3.43;;;1.33;;
29466;SDS011;60968;37.490;-122.288;2023-04-06T14:40:34;5.20;;;1.50;;
29466;SDS011;60968;37.490;-122.288;2023-04-06T14:43:35;2.10;;;1.20;;
29466;SDS011;60968;37.490;-122.288;2023-04-06T14:46:36;6.03;;;1.30;;
29466;SDS011;60968;37.490;-122.288;2023-04-06T14:49:37;9.07;;;1.20;;
29466;SDS011;60968;37.490;-122.288;2023-04-06T14:52:38;5.90;;;1.37;;
29466;SDS011;60968;37.490;-122.288;2023-04-06T14:55:40;8.97;;;1.57;;
29466;SDS011;60968;37.490;-122.288;2023-04-06T14:58:41;7.23;;;1.07;;
29466;SDS011;60968;37.490;-122.288;2023-04-06T15:01:42;4.87;;;1.00;;
29466;SDS011;60968;37.490;-122.288;2023-04-06T15:04:42;5.03;;;1.50;;
29466;SDS011;60968;37.490;-122.288;2023-04-06T15:07:44;10.13;;;1.70;;
29466;SDS011;60968;37.490;-122.288;2023-04-06T15:10:45;5.63;;;1.60;;
29466;SDS011;60968;37.490;-122.288;2023-04-06T15:13:46;10.67;;;1.60;;
29466;SDS011;60968;37.490;-122.288;2023-04-06T15:16:52;5.03;;;1.57;;
29466;SDS011;60968;37.490;-122.288;2023-04-06T15:19:53;8.03;;;1.67;;
29466;SDS011;60968;37.490;-122.288;2023-04-06T15:22:54;8.30;;;1.87;;
29466;SDS011;60968;37.490;-122.288;2023-04-06T15:25:56;15.03;;;3.20;;
29466;SDS011;60968;37.490;-122.288;2023-04-06T15:28:57;9.23;;;1.70;;
29466;SDS011;60968;37.490;-122.288;2023-04-06T15:32:00;6.27;;;1.80;;
29466;SDS011;60968;37.490;-122.288;2023-04-06T15:35:08;5.83;;;1.80;;
29466;SDS011;60968;37.490;-122.288;2023-04-06T15:38:09;4.88;;;1.55;;
29466;SDS011;60968;37.490;-122.288;2023-04-06T15:41:12;7.83;;;1.90;;
29466;SDS011;60968;37.490;-122.288;2023-04-06T15:44:14;6.40;;;1.67;;
29466;SDS011;60968;37.490;-122.288;2023-04-06T15:47:15;7.45;;;1.98;;
29466;SDS011;60968;37.490;-122.288;2023-04-06T15:50:17;12.43;;;2.50;;
29466;SDS011;60968;37.490;-122.288;2023-04-06T15:53:18;12.13;;;1.50;;
29466;SDS011;60968;37.490;-122.288;2023-04-06T15:56:19;9.60;;;1.67;;
29466;SDS011;60968;37.490;-122.288;2023-04-06T15:59:20;4.13;;;1.50;;
29466;SDS011;60968;37.490;-122.288;2023-04-06T16:02:21;4.83;;;1.30;;
29466;SDS011;60968;37.490;-122.288;2023-04-06T16:05:22;5.33;;;1.30;;
29466;SDS011;60968;37.490;-122.288;2023-04-06T16:08:23;7.40;;;1.60;;
29466;SDS011;60968;37.490;-122.288;2023-04-06T16:11:24;8.03;;;1.60;;
29466;SDS011;60968;37.490;-122.288;2023-04-06T16:14:25;4.40;;;1.33;;
29466;SDS011;60968;37.490;-122.288;2023-04-06T16:17:26;8.80;;;1.67;;
29466;SDS011;60968;37.490;-122.288;2023-04-06T16:20:29;9.47;;;1.90;;
29466;SDS011;60968;37.490;-122.288;2023-04-06T16:23:31;6.50;;;1.67;;
29466;SDS011;60968;37.490;-122.288;2023-04-06T16:26:32;4.80;;;1.57;;
29466;SDS011;60968;37.490;-122.288;2023-04-06T16:29:33;7.87;;;1.80;;
29466;SDS011;60968;37.490;-122.288;2023-04-06T16:32:35;7.93;;;1.47;;
29466;SDS011;60968;37.490;-122.288;2023-04-06T16:35:41;5.07;;;1.47;;
29466;SDS011;60968;37.490;-122.288;2023-04-06T16:38:43;7.80;;;2.10;;
29466;SDS011;60968;37.490;-122.288;2023-04-06T16:41:44;3.97;;;1.50;;
29466;SDS011;60968;37.490;-122.288;2023-04-06T16:44:46;5.30;;;1.63;;
29466;SDS011;60968;37.490;-122.288;2023-04-06T16:47:47;9.60;;;1.93;;
29466;SDS011;60968;37.490;-122.288;2023-04-06T16:50:49;6.90;;;1.57;;
29466;SDS011;60968;37.490;-122.288;2023-04-06T16:53:52;5.13;;;1.37;;
29466;SDS011;60968;37.490;-122.288;2023-04-06T16:56:56;9.13;;;2.10;;
29466;SDS011;60968;37.490;-122.288;2023-04-06T16:59:56;8.50;;;1.20;;
29466;SDS011;60968;37.490;-122.288;2023-04-06T17:03:01;4.57;;;1.40;;
29466;SDS011;60968;37.490;-122.288;2023-04-06T17:06:01;5.27;;;1.13;;
29466;SDS011;60968;37.490;-122.288;2023-04-06T17:09:02;10.00;;;1.27;;
29466;SDS011;60968;37.490;-122.288;2023-04-06T17:12:05;7.70;;;1.70;;
29466;SDS011;60968;37.490;-122.288;2023-04-06T17:15:06;9.07;;;2.13;;
29466;SDS011;60968;37.490;-122.288;2023-04-06T17:18:08;12.27;;;2.53;;
29466;SDS011;60968;37.490;-122.288;2023-04-06T17:21:11;8.53;;;2.87;;
29466;SDS011;60968;37.490;-122.288;2023-04-06T17:24:12;10.98;;;2.83;;
29466;SDS011;60968;37.490;-122.288;2023-04-06T17:27:13;10.82;;;2.92;;
29466;SDS011;60968;37.490;-122.288;2023-04-06T17:30:14;7.50;;;2.38;;